sensor_id;sensor_type;location;lat;lon;timestamp;P1;durP1;ratioP1;P2;durP2;ratioP2
75450;SDS011;64029;48.244;9.188;2023-07-02T00:01:46;2.70;;;1.40;;
75450;SDS011;64029;48.244;9.188;2023-07-02T00:04:13;2.60;;;1.40;;
75450;SDS011;64029;48.244;9.188;2023-07-02T00:06:42;1.43;;;1.20;;
75450;SDS011;64029;48.244;9.188;2023-07-02T00:09:11;2.10;;;1.50;;
75450;SDS011;64029;48.244;9.188;2023-07-02T00:11:38;1.50;;;1.40;;
75450;SDS011;64029;48.244;9.188;2023-07-02T00:14:07;1.40;;;1.30;;
75450;SDS011;64029;48.244;9.188;2023-07-02T00:16:35;1.60;;;1.23;;
75450;SDS011;64029;48.244;9.188;2023-07-02T00:19:03;3.90;;;1.37;;
75450;SDS011;64029;48.244;9.188;2023-07-02T00:21:30;1.97;;;1.10;;
75450;SDS011;64029;48.244;9.188;2023-07-02T00:23:58;2.40;;;1.37;;
75450;SDS011;64029;48.244;9.188;2023-07-02T00:26:25;1.63;;;1.43;;
75450;SDS011;64029;48.244;9.188;2023-07-02T00:28:53;4.60;;;1.87;;
75450;SDS011;64029;48.244;9.188;2023-07-02T00:31:21;1.80;;;1.43;;
75450;SDS011;64029;48.244;9.188;2023-07-02T00:33:49;2.23;;;1.53;;
75450;SDS011;64029;48.244;9.188;2023-07-02T00:36:16;1.70;;;1.60;;
75450;SDS011;64029;48.244;9.188;2023-07-02T00:38:44;2.77;;;1.70;;
75450;SDS011;64029;48.244;9.188;2023-07-02T00:41:12;2.23;;;1.60;;
75450;SDS011;64029;48.244;9.188;2023-07-02T00:43:39;2.30;;;2.10;;
75450;SDS011;64029;48.244;9.188;2023-07-02T00:46:08;3.30;;;1.83;;
75450;SDS011;64029;48.244;9.188;2023-07-02T00:48:39;1.70;;;1.60;;
75450;SDS011;64029;48.244;9.188;2023-07-02T00:51:06;2.70;;;1.73;;
75450;SDS011;64029;48.244;9.188;2023-07-02T00:53:34;1.70;;;1.60;;
75450;SDS011;64029;48.244;9.188;2023-07-02T00:56:01;1.90;;;1.47;;
75450;SDS011;64029;48.244;9.188;2023-07-02T00:58:28;2.10;;;2.00;;
75450;SDS011;64029;48.244;9.188;2023-07-02T01:00:56;3.10;;;1.90;;
75450;SDS011;64029;48.244;9.188;2023-07-02T01:03:22;2.63;;;1.87;;
75450;SDS011;64029;48.244;9.188;2023-07-02T01:05:51;2.27;;;2.07;;
75450;SDS011;64029;48.244;9.188;2023-07-02T01:08:18;2.37;;;2.13;;
75450;SDS011;64029;48.244;9.188;2023-07-02T01:10:45;2.13;;;1.93;;
75450;SDS011;64029;48.244;9.188;2023-07-02T01:13:14;2.40;;;2.20;;
75450;SDS011;64029;48.244;9.188;2023-07-02T01:15:45;5.10;;;2.50;;
75450;SDS011;64029;48.244;9.188;2023-07-02T01:18:14;2.53;;;2.33;;
75450;SDS011;64029;48.244;9.188;2023-07-02T01:20:42;2.47;;;2.27;;
75450;SDS011;64029;48.244;9.188;2023-07-02T01:23:10;2.30;;;2.10;;
75450;SDS011;64029;48.244;9.188;2023-07-02T01:25:37;2.73;;;2.53;;
75450;SDS011;64029;48.244;9.188;2023-07-02T01:28:04;3.80;;;2.50;;
75450;SDS011;64029;48.244;9.188;2023-07-02T01:30:31;3.93;;;2.90;;
75450;SDS011;64029;48.244;9.188;2023-07-02T01:32:58;5.57;;;3.40;;
75450;SDS011;64029;48.244;9.188;2023-07-02T01:35:24;4.93;;;3.57;;
75450;SDS011;64029;48.244;9.188;2023-07-02T01:37:53;3.07;;;2.73;;
75450;SDS011;64029;48.244;9.188;2023-07-02T01:40:19;6.20;;;3.93;;
75450;SDS011;64029;48.244;9.188;2023-07-02T01:42:46;5.93;;;3.57;;
75450;SDS011;64029;48.244;9.188;2023-07-02T01:45:13;3.37;;;3.00;;
75450;SDS011;64029;48.244;9.188;2023-07-02T01:47:40;4.10;;;3.50;;
75450;SDS011;64029;48.244;9.188;2023-07-02T01:50:07;5.80;;;3.00;;
75450;SDS011;64029;48.244;9.188;2023-07-02T01:52:34;6.23;;;4.13;;
75450;SDS011;64029;48.244;9.188;2023-07-02T01:55:02;6.70;;;3.40;;
75450;SDS011;64029;48.244;9.188;2023-07-02T01:57:30;4.00;;;3.60;;
75450;SDS011;64029;48.244;9.188;2023-07-02T01:59:56;4.00;;;3.47;;
75450;SDS011;64029;48.244;9.188;2023-07-02T02:02:23;4.00;;;3.23;;
75450;SDS011;64029;48.244;9.188;2023-07-02T02:04:50;4.10;;;3.50;;
75450;SDS011;64029;48.244;9.188;2023-07-02T02:07:17;5.30;;;3.53;;
75450;SDS011;64029;48.244;9.188;2023-07-02T02:09:44;4.10;;;3.50;;
75450;SDS011;64029;48.244;9.188;2023-07-02T02:12:12;4.00;;;3.00;;
75450;SDS011;64029;48.244;9.188;2023-07-02T02:14:40;5.17;;;3.00;;
75450;SDS011;64029;48.244;9.188;2023-07-02T02:17:07;3.30;;;3.00;;
75450;SDS011;64029;48.244;9.188;2023-07-02T02:19:34;4.00;;;3.60;;
75450;SDS011;64029;48.244;9.188;2023-07-02T02:22:00;5.00;;;3.23;;
75450;SDS011;64029;48.244;9.188;2023-07-02T02:24:27;3.33;;;3.03;;
75450;SDS011;64029;48.244;9.188;2023-07-02T02:26:54;4.07;;;3.60;;
75450;SDS011;64029;48.244;9.188;2023-07-02T02:29:23;5.17;;;3.50;;
75450;SDS011;64029;48.244;9.188;2023-07-02T02:31:49;3.60;;;3.07;;
75450;SDS011;64029;48.244;9.188;2023-07-02T02:34:16;4.23;;;3.30;;
75450;SDS011;64029;48.244;9.188;2023-07-02T02:36:43;4.90;;;3.63;;
75450;SDS011;64029;48.244;9.188;2023-07-02T02:39:11;3.80;;;3.50;;
75450;SDS011;64029;48.244;9.188;2023-07-02T02:41:39;4.33;;;3.50;;
75450;SDS011;64029;48.244;9.188;2023-07-02T02:44:06;5.43;;;2.97;;
75450;SDS011;64029;48.244;9.188;2023-07-02T02:46:34;3.40;;;3.10;;
75450;SDS011;64029;48.244;9.188;2023-07-02T02:49:01;6.23;;;3.47;;
75450;SDS011;64029;48.244;9.188;2023-07-02T02:51:27;5.80;;;3.77;;
75450;SDS011;64029;48.244;9.188;2023-07-02T02:53:54;3.73;;;3.03;;
75450;SDS011;64029;48.244;9.188;2023-07-02T02:56:21;4.47;;;3.33;;
75450;SDS011;64029;48.244;9.188;2023-07-02T02:58:48;5.03;;;3.47;;
75450;SDS011;64029;48.244;9.188;2023-07-02T03:01:15;4.17;;;3.50;;
75450;SDS011;64029;48.244;9.188;2023-07-02T03:03:43;3.60;;;3.30;;
75450;SDS011;64029;48.244;9.188;2023-07-02T03:06:11;3.80;;;3.40;;
75450;SDS011;64029;48.244;9.188;2023-07-02T03:08:39;7.03;;;3.70;;
75450;SDS011;64029;48.244;9.188;2023-07-02T03:11:06;4.00;;;3.20;;
75450;SDS011;64029;48.244;9.188;2023-07-02T03:13:33;8.70;;;3.37;;
75450;SDS011;64029;48.244;9.188;2023-07-02T03:16:00;4.20;;;3.57;;
75450;SDS011;64029;48.244;9.188;2023-07-02T03:18:27;4.10;;;3.47;;
75450;SDS011;64029;48.244;9.188;2023-07-02T03:20:55;5.10;;;3.67;;
75450;SDS011;64029;48.244;9.188;2023-07-02T03:23:22;3.90;;;3.07;;
75450;SDS011;64029;48.244;9.188;2023-07-02T03:25:48;5.00;;;3.73;;
75450;SDS011;64029;48.244;9.188;2023-07-02T03:28:15;3.73;;;3.43;;
75450;SDS011;64029;48.244;9.188;2023-07-02T03:30:42;4.70;;;3.90;;
75450;SDS011;64029;48.244;9.188;2023-07-02T03:33:09;7.03;;;4.10;;
75450;SDS011;64029;48.244;9.188;2023-07-02T03:35:36;6.00;;;4.00;;
75450;SDS011;64029;48.244;9.188;2023-07-02T03:38:04;4.60;;;3.67;;
75450;SDS011;64029;48.244;9.188;2023-07-02T03:40:31;5.80;;;4.23;;
75450;SDS011;64029;48.244;9.188;2023-07-02T03:42:58;5.10;;;4.00;;
75450;SDS011;64029;48.244;9.188;2023-07-02T03:45:25;4.50;;;3.73;;
75450;SDS011;64029;48.244;9.188;2023-07-02T03:47:52;4.20;;;3.00;;
75450;SDS011;64029;48.244;9.188;2023-07-02T03:50:19;4.23;;;3.77;;
75450;SDS011;64029;48.244;9.188;2023-07-02T03:52:46;6.40;;;3.67;;
75450;SDS011;64029;48.244;9.188;2023-07-02T03:55:14;5.07;;;3.60;;
75450;SDS011;64029;48.244;9.188;2023-07-02T03:57:41;5.50;;;3.77;;
75450;SDS011;64029;48.244;9.188;2023-07-02T04:00:08;4.63;;;3.50;;
75450;SDS011;64029;48.244;9.188;2023-07-02T04:02:36;5.00;;;3.43;;
75450;SDS011;64029;48.244;9.188;2023-07-02T04:05:03;3.67;;;3.10;;
75450;SDS011;64029;48.244;9.188;2023-07-02T04:07:31;4.87;;;3.03;;
75450;SDS011;64029;48.244;9.188;2023-07-02T04:09:57;6.10;;;3.57;;
75450;SDS011;64029;48.244;9.188;2023-07-02T04:12:26;7.63;;;3.40;;
75450;SDS011;64029;48.244;9.188;2023-07-02T04:14:53;4.40;;;2.67;;
75450;SDS011;64029;48.244;9.188;2023-07-02T04:17:20;4.67;;;3.20;;
75450;SDS011;64029;48.244;9.188;2023-07-02T04:19:46;4.20;;;3.13;;
75450;SDS011;64029;48.244;9.188;2023-07-02T04:22:13;4.60;;;3.97;;
75450;SDS011;64029;48.244;9.188;2023-07-02T04:24:40;3.83;;;3.23;;
75450;SDS011;64029;48.244;9.188;2023-07-02T04:27:07;3.80;;;3.50;;
75450;SDS011;64029;48.244;9.188;2023-07-02T04:29:35;3.67;;;3.37;;
75450;SDS011;64029;48.244;9.188;2023-07-02T04:32:02;4.70;;;4.00;;
75450;SDS011;64029;48.244;9.188;2023-07-02T04:34:29;3.47;;;3.17;;
75450;SDS011;64029;48.244;9.188;2023-07-02T04:36:56;4.63;;;3.47;;
75450;SDS011;64029;48.244;9.188;2023-07-02T04:39:23;7.77;;;4.07;;
75450;SDS011;64029;48.244;9.188;2023-07-02T04:41:50;4.40;;;3.77;;
75450;SDS011;64029;48.244;9.188;2023-07-02T04:44:17;5.30;;;3.90;;
75450;SDS011;64029;48.244;9.188;2023-07-02T04:46:49;7.87;;;4.20;;
75450;SDS011;64029;48.244;9.188;2023-07-02T04:49:15;10.13;;;4.10;;
75450;SDS011;64029;48.244;9.188;2023-07-02T04:51:42;4.77;;;3.77;;
75450;SDS011;64029;48.244;9.188;2023-07-02T04:54:09;4.43;;;3.77;;
75450;SDS011;64029;48.244;9.188;2023-07-02T04:56:36;5.80;;;4.00;;
75450;SDS011;64029;48.244;9.188;2023-07-02T04:59:03;4.40;;;3.97;;
75450;SDS011;64029;48.244;9.188;2023-07-02T05:01:29;6.00;;;4.10;;
75450;SDS011;64029;48.244;9.188;2023-07-02T05:03:58;5.87;;;3.70;;
75450;SDS011;64029;48.244;9.188;2023-07-02T05:06:24;4.50;;;3.30;;
75450;SDS011;64029;48.244;9.188;2023-07-02T05:08:51;6.77;;;4.57;;
75450;SDS011;64029;48.244;9.188;2023-07-02T05:11:18;6.07;;;4.37;;
75450;SDS011;64029;48.244;9.188;2023-07-02T05:13:45;6.37;;;4.57;;
75450;SDS011;64029;48.244;9.188;2023-07-02T05:16:12;5.20;;;4.40;;
75450;SDS011;64029;48.244;9.188;2023-07-02T05:18:39;7.13;;;4.80;;
75450;SDS011;64029;48.244;9.188;2023-07-02T05:21:07;5.00;;;4.43;;
75450;SDS011;64029;48.244;9.188;2023-07-02T05:23:34;7.17;;;4.50;;
75450;SDS011;64029;48.244;9.188;2023-07-02T05:26:01;9.63;;;4.67;;
75450;SDS011;64029;48.244;9.188;2023-07-02T05:28:28;6.10;;;4.67;;
75450;SDS011;64029;48.244;9.188;2023-07-02T05:30:55;6.63;;;4.10;;
75450;SDS011;64029;48.244;9.188;2023-07-02T05:33:22;5.80;;;4.03;;
75450;SDS011;64029;48.244;9.188;2023-07-02T05:35:48;5.77;;;3.87;;
75450;SDS011;64029;48.244;9.188;2023-07-02T05:38:17;6.80;;;5.07;;
75450;SDS011;64029;48.244;9.188;2023-07-02T05:40:44;6.10;;;4.47;;
75450;SDS011;64029;48.244;9.188;2023-07-02T05:43:11;10.47;;;5.10;;
75450;SDS011;64029;48.244;9.188;2023-07-02T05:45:38;7.20;;;5.07;;
75450;SDS011;64029;48.244;9.188;2023-07-02T05:48:05;8.53;;;5.53;;
75450;SDS011;64029;48.244;9.188;2023-07-02T05:50:32;5.80;;;4.73;;
75450;SDS011;64029;48.244;9.188;2023-07-02T05:52:59;7.53;;;5.33;;
75450;SDS011;64029;48.244;9.188;2023-07-02T05:55:27;7.50;;;5.23;;
75450;SDS011;64029;48.244;9.188;2023-07-02T05:57:54;13.30;;;5.40;;
75450;SDS011;64029;48.244;9.188;2023-07-02T06:00:22;8.60;;;4.97;;
75450;SDS011;64029;48.244;9.188;2023-07-02T06:02:49;7.33;;;5.03;;
75450;SDS011;64029;48.244;9.188;2023-07-02T06:05:16;5.90;;;4.50;;
75450;SDS011;64029;48.244;9.188;2023-07-02T06:07:43;8.80;;;5.67;;
75450;SDS011;64029;48.244;9.188;2023-07-02T06:10:09;8.13;;;4.87;;
75450;SDS011;64029;48.244;9.188;2023-07-02T06:12:38;10.03;;;5.43;;
75450;SDS011;64029;48.244;9.188;2023-07-02T06:15:05;12.00;;;5.57;;
75450;SDS011;64029;48.244;9.188;2023-07-02T06:17:32;7.40;;;4.40;;
75450;SDS011;64029;48.244;9.188;2023-07-02T06:19:59;8.60;;;6.30;;
75450;SDS011;64029;48.244;9.188;2023-07-02T06:22:29;8.30;;;5.87;;
75450;SDS011;64029;48.244;9.188;2023-07-02T06:24:56;10.20;;;6.00;;
75450;SDS011;64029;48.244;9.188;2023-07-02T06:27:23;11.00;;;6.23;;
75450;SDS011;64029;48.244;9.188;2023-07-02T06:29:51;9.60;;;6.07;;
75450;SDS011;64029;48.244;9.188;2023-07-02T06:32:18;6.10;;;4.77;;
75450;SDS011;64029;48.244;9.188;2023-07-02T06:34:45;11.47;;;6.90;;
75450;SDS011;64029;48.244;9.188;2023-07-02T06:37:11;7.60;;;5.40;;
75450;SDS011;64029;48.244;9.188;2023-07-02T06:39:38;9.47;;;6.40;;
75450;SDS011;64029;48.244;9.188;2023-07-02T06:42:05;8.80;;;5.90;;
75450;SDS011;64029;48.244;9.188;2023-07-02T06:44:32;9.47;;;6.63;;
75450;SDS011;64029;48.244;9.188;2023-07-02T06:47:00;8.60;;;6.57;;
75450;SDS011;64029;48.244;9.188;2023-07-02T06:49:27;10.67;;;6.60;;
75450;SDS011;64029;48.244;9.188;2023-07-02T06:51:54;11.57;;;7.40;;
75450;SDS011;64029;48.244;9.188;2023-07-02T06:54:20;10.43;;;6.83;;
75450;SDS011;64029;48.244;9.188;2023-07-02T06:56:47;11.03;;;7.47;;
75450;SDS011;64029;48.244;9.188;2023-07-02T06:59:18;11.80;;;7.30;;
75450;SDS011;64029;48.244;9.188;2023-07-02T07:01:45;12.77;;;7.70;;
75450;SDS011;64029;48.244;9.188;2023-07-02T07:04:14;11.30;;;8.33;;
75450;SDS011;64029;48.244;9.188;2023-07-02T07:06:41;9.70;;;7.20;;
75450;SDS011;64029;48.244;9.188;2023-07-02T07:09:08;12.37;;;8.33;;
75450;SDS011;64029;48.244;9.188;2023-07-02T07:11:35;11.47;;;7.93;;
75450;SDS011;64029;48.244;9.188;2023-07-02T07:14:02;14.07;;;8.27;;
75450;SDS011;64029;48.244;9.188;2023-07-02T07:16:29;10.70;;;8.00;;
75450;SDS011;64029;48.244;9.188;2023-07-02T07:18:55;13.90;;;8.90;;
75450;SDS011;64029;48.244;9.188;2023-07-02T07:21:24;13.07;;;8.40;;
75450;SDS011;64029;48.244;9.188;2023-07-02T07:23:50;14.37;;;8.13;;
75450;SDS011;64029;48.244;9.188;2023-07-02T07:26:17;12.07;;;8.97;;
75450;SDS011;64029;48.244;9.188;2023-07-02T07:28:44;12.47;;;8.40;;
75450;SDS011;64029;48.244;9.188;2023-07-02T07:31:11;14.40;;;8.80;;
75450;SDS011;64029;48.244;9.188;2023-07-02T07:33:38;13.27;;;8.30;;
75450;SDS011;64029;48.244;9.188;2023-07-02T07:36:05;16.03;;;9.23;;
75450;SDS011;64029;48.244;9.188;2023-07-02T07:38:33;12.63;;;8.80;;
75450;SDS011;64029;48.244;9.188;2023-07-02T07:41:00;13.00;;;8.30;;
75450;SDS011;64029;48.244;9.188;2023-07-02T07:43:27;20.40;;;9.97;;
75450;SDS011;64029;48.244;9.188;2023-07-02T07:45:53;12.13;;;8.43;;
75450;SDS011;64029;48.244;9.188;2023-07-02T07:48:20;14.43;;;9.20;;
75450;SDS011;64029;48.244;9.188;2023-07-02T07:50:47;15.30;;;10.00;;
75450;SDS011;64029;48.244;9.188;2023-07-02T07:53:14;17.93;;;10.33;;
75450;SDS011;64029;48.244;9.188;2023-07-02T07:55:43;16.77;;;10.50;;
75450;SDS011;64029;48.244;9.188;2023-07-02T07:58:09;16.70;;;11.00;;
75450;SDS011;64029;48.244;9.188;2023-07-02T08:00:36;16.90;;;10.47;;
75450;SDS011;64029;48.244;9.188;2023-07-02T08:03:03;17.40;;;10.70;;
75450;SDS011;64029;48.244;9.188;2023-07-02T08:05:30;17.63;;;11.77;;
75450;SDS011;64029;48.244;9.188;2023-07-02T08:07:57;19.23;;;12.00;;
75450;SDS011;64029;48.244;9.188;2023-07-02T08:10:24;17.80;;;11.70;;
75450;SDS011;64029;48.244;9.188;2023-07-02T08:12:54;19.50;;;13.10;;
75450;SDS011;64029;48.244;9.188;2023-07-02T08:15:21;17.70;;;12.20;;
75450;SDS011;64029;48.244;9.188;2023-07-02T08:17:48;19.13;;;11.70;;
75450;SDS011;64029;48.244;9.188;2023-07-02T08:20:19;19.90;;;12.80;;
75450;SDS011;64029;48.244;9.188;2023-07-02T08:22:46;25.70;;;12.90;;
75450;SDS011;64029;48.244;9.188;2023-07-02T08:25:13;22.37;;;13.50;;
75450;SDS011;64029;48.244;9.188;2023-07-02T08:27:39;20.47;;;13.50;;
75450;SDS011;64029;48.244;9.188;2023-07-02T08:30:08;19.50;;;13.60;;
75450;SDS011;64029;48.244;9.188;2023-07-02T08:32:35;22.03;;;14.20;;
75450;SDS011;64029;48.244;9.188;2023-07-02T08:35:02;22.40;;;15.47;;
75450;SDS011;64029;48.244;9.188;2023-07-02T08:37:29;21.83;;;14.23;;
75450;SDS011;64029;48.244;9.188;2023-07-02T08:39:56;19.57;;;13.10;;
75450;SDS011;64029;48.244;9.188;2023-07-02T08:42:23;25.70;;;15.80;;
75450;SDS011;64029;48.244;9.188;2023-07-02T08:44:54;25.10;;;14.43;;
75450;SDS011;64029;48.244;9.188;2023-07-02T08:47:24;22.30;;;13.30;;
75450;SDS011;64029;48.244;9.188;2023-07-02T08:49:51;25.13;;;15.60;;
75450;SDS011;64029;48.244;9.188;2023-07-02T08:52:18;21.30;;;14.60;;
75450;SDS011;64029;48.244;9.188;2023-07-02T08:54:45;22.90;;;14.73;;
75450;SDS011;64029;48.244;9.188;2023-07-02T08:57:12;21.97;;;15.17;;
75450;SDS011;64029;48.244;9.188;2023-07-02T08:59:39;20.07;;;14.50;;
75450;SDS011;64029;48.244;9.188;2023-07-02T09:02:05;22.90;;;14.57;;
75450;SDS011;64029;48.244;9.188;2023-07-02T09:04:34;21.43;;;14.00;;
75450;SDS011;64029;48.244;9.188;2023-07-02T09:07:04;25.87;;;14.70;;
75450;SDS011;64029;48.244;9.188;2023-07-02T09:09:32;26.23;;;15.37;;
75450;SDS011;64029;48.244;9.188;2023-07-02T09:11:59;23.97;;;15.73;;
75450;SDS011;64029;48.244;9.188;2023-07-02T09:14:27;25.87;;;16.40;;
75450;SDS011;64029;48.244;9.188;2023-07-02T09:17:01;24.13;;;15.93;;
75450;SDS011;64029;48.244;9.188;2023-07-02T09:19:29;22.00;;;15.20;;
75450;SDS011;64029;48.244;9.188;2023-07-02T09:21:58;25.83;;;15.63;;
75450;SDS011;64029;48.244;9.188;2023-07-02T09:24:26;21.90;;;15.20;;
75450;SDS011;64029;48.244;9.188;2023-07-02T09:26:55;23.23;;;15.93;;
75450;SDS011;64029;48.244;9.188;2023-07-02T09:29:23;22.83;;;15.67;;
75450;SDS011;64029;48.244;9.188;2023-07-02T09:31:53;21.70;;;14.50;;
75450;SDS011;64029;48.244;9.188;2023-07-02T09:34:26;23.83;;;15.70;;
75450;SDS011;64029;48.244;9.188;2023-07-02T09:36:54;22.23;;;15.83;;
75450;SDS011;64029;48.244;9.188;2023-07-02T09:39:26;22.77;;;16.13;;
75450;SDS011;64029;48.244;9.188;2023-07-02T09:41:54;22.60;;;15.60;;
75450;SDS011;64029;48.244;9.188;2023-07-02T09:44:21;25.90;;;16.80;;
75450;SDS011;64029;48.244;9.188;2023-07-02T09:46:53;26.10;;;17.00;;
75450;SDS011;64029;48.244;9.188;2023-07-02T09:49:24;24.27;;;16.70;;
75450;SDS011;64029;48.244;9.188;2023-07-02T09:51:52;24.30;;;16.30;;
75450;SDS011;64029;48.244;9.188;2023-07-02T09:54:21;24.50;;;17.20;;
75450;SDS011;64029;48.244;9.188;2023-07-02T09:56:49;23.90;;;16.63;;
75450;SDS011;64029;48.244;9.188;2023-07-02T09:59:16;23.13;;;15.67;;
75450;SDS011;64029;48.244;9.188;2023-07-02T10:01:43;25.50;;;17.47;;
75450;SDS011;64029;48.244;9.188;2023-07-02T10:04:10;24.53;;;16.63;;
75450;SDS011;64029;48.244;9.188;2023-07-02T10:06:47;24.30;;;16.53;;
75450;SDS011;64029;48.244;9.188;2023-07-02T10:09:15;24.90;;;16.83;;
75450;SDS011;64029;48.244;9.188;2023-07-02T10:11:44;23.77;;;15.57;;
75450;SDS011;64029;48.244;9.188;2023-07-02T10:14:13;25.13;;;16.83;;
75450;SDS011;64029;48.244;9.188;2023-07-02T10:16:49;26.37;;;17.47;;
75450;SDS011;64029;48.244;9.188;2023-07-02T10:19:17;25.97;;;17.17;;
75450;SDS011;64029;48.244;9.188;2023-07-02T10:21:44;27.50;;;18.87;;
75450;SDS011;64029;48.244;9.188;2023-07-02T10:24:13;31.20;;;18.47;;
75450;SDS011;64029;48.244;9.188;2023-07-02T10:27:09;30.80;;;18.90;;
75450;SDS011;64029;48.244;9.188;2023-07-02T10:29:37;29.80;;;19.00;;
75450;SDS011;64029;48.244;9.188;2023-07-02T10:32:25;25.90;;;17.80;;
75450;SDS011;64029;48.244;9.188;2023-07-02T10:34:53;25.90;;;18.53;;
75450;SDS011;64029;48.244;9.188;2023-07-02T10:37:20;28.47;;;18.23;;
75450;SDS011;64029;48.244;9.188;2023-07-02T10:39:47;27.47;;;17.87;;
75450;SDS011;64029;48.244;9.188;2023-07-02T10:42:14;28.43;;;18.80;;
75450;SDS011;64029;48.244;9.188;2023-07-02T10:44:49;27.80;;;18.77;;
75450;SDS011;64029;48.244;9.188;2023-07-02T10:47:16;27.27;;;18.23;;
75450;SDS011;64029;48.244;9.188;2023-07-02T10:49:43;27.80;;;17.73;;
75450;SDS011;64029;48.244;9.188;2023-07-02T10:52:10;24.80;;;17.47;;
75450;SDS011;64029;48.244;9.188;2023-07-02T10:54:41;25.37;;;16.90;;
75450;SDS011;64029;48.244;9.188;2023-07-02T10:57:08;24.80;;;17.80;;
75450;SDS011;64029;48.244;9.188;2023-07-02T10:59:36;26.80;;;17.13;;
75450;SDS011;64029;48.244;9.188;2023-07-02T11:02:05;24.70;;;18.60;;
75450;SDS011;64029;48.244;9.188;2023-07-02T11:04:33;22.83;;;15.10;;
75450;SDS011;64029;48.244;9.188;2023-07-02T11:07:00;24.23;;;15.50;;
75450;SDS011;64029;48.244;9.188;2023-07-02T11:09:27;24.23;;;14.70;;
75450;SDS011;64029;48.244;9.188;2023-07-02T11:11:54;20.50;;;14.40;;
75450;SDS011;64029;48.244;9.188;2023-07-02T11:14:26;19.33;;;13.90;;
75450;SDS011;64029;48.244;9.188;2023-07-02T11:16:54;20.93;;;14.50;;
75450;SDS011;64029;48.244;9.188;2023-07-02T11:19:22;19.23;;;14.40;;
75450;SDS011;64029;48.244;9.188;2023-07-02T11:21:50;19.93;;;13.50;;
75450;SDS011;64029;48.244;9.188;2023-07-02T11:24:26;17.80;;;13.27;;
75450;SDS011;64029;48.244;9.188;2023-07-02T11:26:54;21.23;;;13.57;;
75450;SDS011;64029;48.244;9.188;2023-07-02T11:29:21;19.07;;;12.40;;
75450;SDS011;64029;48.244;9.188;2023-07-02T11:31:48;16.77;;;11.80;;
75450;SDS011;64029;48.244;9.188;2023-07-02T11:34:15;13.70;;;10.47;;
75450;SDS011;64029;48.244;9.188;2023-07-02T11:36:45;16.83;;;11.77;;
75450;SDS011;64029;48.244;9.188;2023-07-02T11:39:12;15.73;;;10.40;;
75450;SDS011;64029;48.244;9.188;2023-07-02T11:41:41;17.80;;;11.40;;
75450;SDS011;64029;48.244;9.188;2023-07-02T11:44:09;16.50;;;10.83;;
75450;SDS011;64029;48.244;9.188;2023-07-02T11:46:36;15.80;;;11.30;;
75450;SDS011;64029;48.244;9.188;2023-07-02T11:49:03;15.83;;;11.40;;
75450;SDS011;64029;48.244;9.188;2023-07-02T11:51:32;18.43;;;12.10;;
75450;SDS011;64029;48.244;9.188;2023-07-02T11:54:01;18.47;;;11.67;;
75450;SDS011;64029;48.244;9.188;2023-07-02T11:56:27;20.40;;;13.57;;
75450;SDS011;64029;48.244;9.188;2023-07-02T11:58:54;15.33;;;11.10;;
75450;SDS011;64029;48.244;9.188;2023-07-02T12:01:21;17.90;;;12.77;;
75450;SDS011;64029;48.244;9.188;2023-07-02T12:03:48;19.53;;;12.57;;
75450;SDS011;64029;48.244;9.188;2023-07-02T12:06:15;15.57;;;11.90;;
75450;SDS011;64029;48.244;9.188;2023-07-02T12:08:42;16.50;;;11.60;;
75450;SDS011;64029;48.244;9.188;2023-07-02T12:11:10;18.17;;;12.10;;
75450;SDS011;64029;48.244;9.188;2023-07-02T12:13:37;17.50;;;11.47;;
75450;SDS011;64029;48.244;9.188;2023-07-02T12:16:04;19.37;;;12.10;;
75450;SDS011;64029;48.244;9.188;2023-07-02T12:18:31;18.03;;;12.47;;
75450;SDS011;64029;48.244;9.188;2023-07-02T12:20:58;18.07;;;10.80;;
75450;SDS011;64029;48.244;9.188;2023-07-02T12:23:24;13.93;;;10.67;;
75450;SDS011;64029;48.244;9.188;2023-07-02T12:25:51;16.33;;;11.30;;
75450;SDS011;64029;48.244;9.188;2023-07-02T12:28:19;16.40;;;9.97;;
75450;SDS011;64029;48.244;9.188;2023-07-02T12:30:46;16.60;;;11.77;;
75450;SDS011;64029;48.244;9.188;2023-07-02T12:33:13;18.67;;;12.20;;
75450;SDS011;64029;48.244;9.188;2023-07-02T12:35:40;15.27;;;11.70;;
75450;SDS011;64029;48.244;9.188;2023-07-02T12:38:07;18.30;;;12.00;;
75450;SDS011;64029;48.244;9.188;2023-07-02T12:40:34;20.30;;;11.97;;
75450;SDS011;64029;48.244;9.188;2023-07-02T12:43:01;18.37;;;12.60;;
75450;SDS011;64029;48.244;9.188;2023-07-02T12:45:29;20.00;;;12.97;;
75450;SDS011;64029;48.244;9.188;2023-07-02T12:47:56;21.33;;;13.17;;
75450;SDS011;64029;48.244;9.188;2023-07-02T12:50:23;18.20;;;12.40;;
75450;SDS011;64029;48.244;9.188;2023-07-02T12:52:50;18.80;;;12.30;;
75450;SDS011;64029;48.244;9.188;2023-07-02T12:55:17;19.13;;;13.30;;
75450;SDS011;64029;48.244;9.188;2023-07-02T12:57:44;21.47;;;14.70;;
75450;SDS011;64029;48.244;9.188;2023-07-02T13:00:11;22.90;;;13.53;;
75450;SDS011;64029;48.244;9.188;2023-07-02T13:02:40;18.33;;;12.50;;
75450;SDS011;64029;48.244;9.188;2023-07-02T13:05:06;21.20;;;14.37;;
75450;SDS011;64029;48.244;9.188;2023-07-02T13:07:33;18.60;;;13.87;;
75450;SDS011;64029;48.244;9.188;2023-07-02T13:10:00;21.53;;;14.10;;
75450;SDS011;64029;48.244;9.188;2023-07-02T13:12:27;24.50;;;15.50;;
75450;SDS011;64029;48.244;9.188;2023-07-02T13:14:54;24.90;;;16.47;;
75450;SDS011;64029;48.244;9.188;2023-07-02T13:17:21;27.30;;;17.50;;
75450;SDS011;64029;48.244;9.188;2023-07-02T13:19:49;26.97;;;15.93;;
75450;SDS011;64029;48.244;9.188;2023-07-02T13:22:16;23.00;;;14.73;;
75450;SDS011;64029;48.244;9.188;2023-07-02T13:24:42;25.47;;;14.93;;
75450;SDS011;64029;48.244;9.188;2023-07-02T13:27:11;22.13;;;15.30;;
75450;SDS011;64029;48.244;9.188;2023-07-02T13:29:41;25.33;;;15.67;;
75450;SDS011;64029;48.244;9.188;2023-07-02T13:32:08;21.77;;;15.37;;
75450;SDS011;64029;48.244;9.188;2023-07-02T13:34:36;22.30;;;15.03;;
75450;SDS011;64029;48.244;9.188;2023-07-02T13:37:04;23.53;;;15.00;;
75450;SDS011;64029;48.244;9.188;2023-07-02T13:39:31;19.40;;;14.00;;
75450;SDS011;64029;48.244;9.188;2023-07-02T13:41:58;20.70;;;14.63;;
75450;SDS011;64029;48.244;9.188;2023-07-02T13:44:25;24.03;;;16.70;;
75450;SDS011;64029;48.244;9.188;2023-07-02T13:46:52;24.03;;;15.07;;
75450;SDS011;64029;48.244;9.188;2023-07-02T13:49:19;27.00;;;17.23;;
75450;SDS011;64029;48.244;9.188;2023-07-02T13:51:46;22.37;;;15.63;;
75450;SDS011;64029;48.244;9.188;2023-07-02T13:54:16;25.40;;;16.53;;
75450;SDS011;64029;48.244;9.188;2023-07-02T13:56:46;23.77;;;15.60;;
75450;SDS011;64029;48.244;9.188;2023-07-02T13:59:15;24.73;;;16.77;;
75450;SDS011;64029;48.244;9.188;2023-07-02T14:01:43;22.87;;;16.17;;
75450;SDS011;64029;48.244;9.188;2023-07-02T14:04:10;24.10;;;15.77;;
75450;SDS011;64029;48.244;9.188;2023-07-02T14:06:38;20.90;;;15.00;;
75450;SDS011;64029;48.244;9.188;2023-07-02T14:09:05;23.40;;;15.80;;
75450;SDS011;64029;48.244;9.188;2023-07-02T14:11:33;23.20;;;15.87;;
75450;SDS011;64029;48.244;9.188;2023-07-02T14:14:01;24.10;;;15.03;;
75450;SDS011;64029;48.244;9.188;2023-07-02T14:16:30;22.97;;;15.90;;
75450;SDS011;64029;48.244;9.188;2023-07-02T14:18:56;23.20;;;16.80;;
75450;SDS011;64029;48.244;9.188;2023-07-02T14:21:23;20.73;;;15.23;;
75450;SDS011;64029;48.244;9.188;2023-07-02T14:23:50;28.23;;;16.23;;
75450;SDS011;64029;48.244;9.188;2023-07-02T14:26:17;24.27;;;15.33;;
75450;SDS011;64029;48.244;9.188;2023-07-02T14:28:44;22.23;;;15.30;;
75450;SDS011;64029;48.244;9.188;2023-07-02T14:31:11;27.20;;;15.47;;
75450;SDS011;64029;48.244;9.188;2023-07-02T14:33:39;21.47;;;14.40;;
75450;SDS011;64029;48.244;9.188;2023-07-02T14:36:06;22.00;;;14.60;;